Time;durP1;ratioP1;P1;durP2;ratioP2;P2;SDS_P1;SDS_P2;PMS_P1;PMS_P2;Temp;Humidity;BMP_temperature;BMP_pressure;BME280_temperature;BME280_humidity;BME280_pressure;Samples;Min_cycle;Max_cycle;Signal;HPM_P1;HPM_P2
2021/11/16 00:01:27;;;;;;;;;;;22.70;50.20;;;;;;1543617;76;735;-59
2021/11/16 00:03:29;;;;;;;;;;;22.70;50.20;;;;;;1551307;76;746;-58
2021/11/16 00:05:31;;;;;;;;;;;22.70;50.20;;;;;;1553480;74;1073;-59
2021/11/16 00:07:33;;;;;;;;;;;22.70;50.30;;;;;;1545176;76;710;-58
2021/11/16 00:09:34;;;;;;;;;;;22.70;50.30;;;;;;1558337;75;692;-59
2021/11/16 00:11:36;;;;;;;;;;;22.70;50.20;;;;;;1557193;76;771;-59
2021/11/16 00:13:38;;;;;;;;;;;22.70;50.30;;;;;;1553002;76;725;-62
2021/11/16 00:15:41;;;;;;;;;;;22.70;50.50;;;;;;1556821;74;1141;-60
2021/11/16 00:17:43;;;;;;;;;;;22.70;50.30;;;;;;1558967;76;1939;-58
2021/11/16 00:19:48;;;;;;;;;;;22.80;50.40;;;;;;1554504;76;734;-58
2021/11/16 00:21:49;;;;;;;;;;;22.70;50.30;;;;;;1552806;76;1672;-58
2021/11/16 00:23:57;;;;;;;;;;;22.70;50.40;;;;;;1545132;76;767;-58
2021/11/16 00:25:58;;;;;;;;;;;22.70;50.30;;;;;;1561378;74;1695;-59
2021/11/16 00:28:00;;;;;;;;;;;22.70;50.30;;;;;;1550401;76;729;-59
2021/11/16 00:30:02;;;;;;;;;;;22.70;50.30;;;;;;1567861;76;771;-59
2021/11/16 00:32:09;;;;;;;;;;;22.70;50.30;;;;;;1566184;76;769;-58
2021/11/16 00:34:08;;;;;;;;;;;22.80;50.20;;;;;;1562918;76;1174;-60
2021/11/16 00:36:10;;;;;;;;;;;22.70;50.20;;;;;;1566529;74;1132;-61
2021/11/16 00:38:12;;;;;;;;;;;22.70;50.20;;;;;;1561350;76;1924;-62
2021/11/16 00:40:19;;;;;;;;;;;22.70;50.10;;;;;;1562193;76;774;-61
2021/11/16 00:43:58;;;;;;;;;;;22.70;50.00;;;;;;1612219;72;648;-60
2021/11/16 00:46:00;;;;;;;;;;;22.70;50.00;;;;;;1593786;73;1168;-60
2021/11/16 00:48:01;;;;;;;;;;;22.70;50.10;;;;;;1582855;73;792;-61
2021/11/16 00:50:04;;;;;;;;;;;22.70;50.20;;;;;;1585566;73;667;-60
2021/11/16 00:52:06;;;;;;;;;;;22.70;50.20;;;;;;1584842;73;723;-59
2021/11/16 00:54:08;;;;;;;;;;;22.70;50.20;;;;;;1585228;73;790;-60
2021/11/16 00:56:10;;;;;;;;;;;22.70;50.20;;;;;;1584080;73;1116;-59
2021/11/16 00:58:12;;;;;;;;;;;22.80;50.30;;;;;;1584088;73;714;-60
2021/11/16 01:00:15;;;;;;;;;;;22.70;50.30;;;;;;1583511;73;712;-60
2021/11/16 01:02:16;;;;;;;;;;;22.70;50.40;;;;;;1583152;73;1934;-59
2021/11/16 01:04:18;;;;;;;;;;;22.80;50.50;;;;;;1585901;73;767;-60
2021/11/16 01:06:20;;;;;;;;;;;22.70;50.50;;;;;;1580454;73;1141;-60
2021/11/16 01:08:22;;;;;;;;;;;22.70;50.50;;;;;;1585650;73;721;-59
2021/11/16 01:10:24;;;;;;;;;;;22.70;50.50;;;;;;1581508;73;713;-61
2021/11/16 01:12:26;;;;;;;;;;;22.80;50.50;;;;;;1583031;73;698;-60
2021/11/16 01:14:28;;;;;;;;;;;22.70;50.50;;;;;;1584318;73;779;-61
2021/11/16 01:16:30;;;;;;;;;;;22.70;50.50;;;;;;1584349;73;1143;-59
2021/11/16 01:18:32;;;;;;;;;;;22.80;50.60;;;;;;1584387;73;616;-61
2021/11/16 01:20:34;;;;;;;;;;;22.70;50.60;;;;;;1584123;73;790;-59
2021/11/16 01:22:36;;;;;;;;;;;22.70;50.60;;;;;;1584152;73;1921;-63
2021/11/16 01:24:38;;;;;;;;;;;22.70;50.60;;;;;;1581716;73;800;-61
2021/11/16 01:26:43;;;;;;;;;;;22.80;50.60;;;;;;1584112;73;1121;-62
2021/11/16 01:28:44;;;;;;;;;;;22.70;50.60;;;;;;1582361;73;1629;-60
2021/11/16 01:30:48;;;;;;;;;;;22.70;50.60;;;;;;1584176;73;846;-61
2021/11/16 01:33:03;;;;;;;;;;;22.70;50.60;;;;;;1582785;73;760;-62
2021/11/16 01:34:56;;;;;;;;;;;22.80;50.50;;;;;;1582033;73;1742;-59
2021/11/16 01:36:58;;;;;;;;;;;22.70;50.50;;;;;;1579627;73;1097;-60
2021/11/16 01:39:00;;;;;;;;;;;22.70;50.50;;;;;;1584434;73;872;-60
2021/11/16 01:41:02;;;;;;;;;;;22.70;50.50;;;;;;1585414;73;704;-59
2021/11/16 01:43:07;;;;;;;;;;;22.70;50.50;;;;;;1586532;73;1938;-60
2021/11/16 01:45:08;;;;;;;;;;;22.70;50.50;;;;;;1587440;73;1655;-60
2021/11/16 01:47:10;;;;;;;;;;;22.80;50.50;;;;;;1586761;73;1111;-59
2021/11/16 01:49:12;;;;;;;;;;;22.80;50.40;;;;;;1586613;73;742;-61
2021/11/16 01:51:15;;;;;;;;;;;22.80;50.40;;;;;;1587426;73;779;-61
2021/11/16 01:53:17;;;;;;;;;;;22.70;50.50;;;;;;1589398;73;704;-60
2021/11/16 01:55:19;;;;;;;;;;;22.70;50.50;;;;;;1589642;73;1134;-60
2021/11/16 01:57:21;;;;;;;;;;;22.80;50.40;;;;;;1585308;73;782;-59
2021/11/16 01:59:23;;;;;;;;;;;22.70;50.40;;;;;;1570286;74;763;-59
2021/11/16 02:01:26;;;;;;;;;;;22.70;50.40;;;;;;1584477;74;769;-60
2021/11/16 02:03:28;;;;;;;;;;;22.70;50.50;;;;;;1581678;73;1919;-60
2021/11/16 02:05:37;;;;;;;;;;;22.70;50.50;;;;;;1590129;73;1115;-59
2021/11/16 02:07:40;;;;;;;;;;;22.70;50.50;;;;;;1572189;74;745;-62
2021/11/16 02:09:43;;;;;;;;;;;22.70;50.50;;;;;;1593208;74;1184;-59
2021/11/16 02:11:45;;;;;;;;;;;22.70;50.50;;;;;;1584065;73;734;-62
2021/11/16 02:13:47;;;;;;;;;;;22.70;50.50;;;;;;1573779;74;726;-60
2021/11/16 02:15:49;;;;;;;;;;;22.70;50.40;;;;;;1585885;74;1163;-60
2021/11/16 02:17:51;;;;;;;;;;;22.80;50.40;;;;;;1575654;74;763;-59
2021/11/16 02:19:53;;;;;;;;;;;22.70;50.40;;;;;;1581408;73;747;-62
2021/11/16 02:21:55;;;;;;;;;;;22.60;50.30;;;;;;1579373;74;779;-60
2021/11/16 02:23:57;;;;;;;;;;;22.70;50.40;;;;;;1593480;73;1932;-59
2021/11/16 02:25:59;;;;;;;;;;;22.60;50.20;;;;;;1578490;74;1120;-59
2021/11/16 02:28:01;;;;;;;;;;;22.70;50.40;;;;;;1585178;74;755;-61
2021/11/16 02:30:06;;;;;;;;;;;22.70;50.40;;;;;;1575034;74;721;-61
2021/11/16 02:32:08;;;;;;;;;;;22.70;50.40;;;;;;1572007;74;841;-59
2021/11/16 02:34:10;;;;;;;;;;;22.80;50.40;;;;;;1581930;73;795;-59
2021/11/16 02:36:12;;;;;;;;;;;22.70;50.40;;;;;;1579806;74;1124;-61
2021/11/16 02:38:14;;;;;;;;;;;22.70;50.50;;;;;;1576717;74;697;-60
2021/11/16 02:40:16;;;;;;;;;;;22.70;50.50;;;;;;1588003;74;685;-60
2021/11/16 02:42:18;;;;;;;;;;;22.70;50.50;;;;;;1586367;74;834;-61
2021/11/16 02:44:21;;;;;;;;;;;22.70;50.50;;;;;;1573761;73;2117;-58
2021/11/16 02:46:23;;;;;;;;;;;22.70;50.50;;;;;;1523192;76;1237;-57
2021/11/16 02:48:25;;;;;;;;;;;22.60;50.50;;;;;;1539865;76;793;-56
2021/11/16 02:50:27;;;;;;;;;;;22.60;50.50;;;;;;1534850;76;710;-57
2021/11/16 02:52:29;;;;;;;;;;;22.70;50.50;;;;;;1531723;76;708;-57
2021/11/16 02:54:30;;;;;;;;;;;22.70;50.50;;;;;;1531406;76;718;-57
2021/11/16 02:56:34;;;;;;;;;;;22.60;50.50;;;;;;1560323;75;1124;-56
2021/11/16 02:58:36;;;;;;;;;;;22.70;50.50;;;;;;1560051;75;1962;-57
2021/11/16 03:00:38;;;;;;;;;;;22.70;50.50;;;;;;1560356;75;716;-56
2021/11/16 03:02:44;;;;;;;;;;;22.70;50.60;;;;;;1560464;75;763;-56
2021/11/16 03:04:46;;;;;;;;;;;22.70;50.60;;;;;;1560690;75;635;-55
2021/11/16 03:06:48;;;;;;;;;;;22.60;50.50;;;;;;1560107;75;1113;-55
2021/11/16 03:08:50;;;;;;;;;;;22.60;50.40;;;;;;1560631;75;792;-54
2021/11/16 03:10:54;;;;;;;;;;;22.70;50.50;;;;;;1572533;75;725;-54
2021/11/16 03:12:56;;;;;;;;;;;22.70;50.50;;;;;;1562802;75;1846;-55
2021/11/16 03:14:58;;;;;;;;;;;22.60;50.40;;;;;;1562344;75;743;-54
2021/11/16 03:17:00;;;;;;;;;;;22.70;50.50;;;;;;1580223;75;1128;-55
2021/11/16 03:19:02;;;;;;;;;;;22.70;50.50;;;;;;1560492;75;678;-55
2021/11/16 03:21:04;;;;;;;;;;;22.60;50.50;;;;;;1560387;75;789;-54
2021/11/16 03:25:16;;;;;;;;;;;22.60;50.50;;;;;;1569318;75;1050;-56
2021/11/16 03:27:19;;;;;;;;;;;22.60;50.50;;;;;;1561288;75;784;-55
2021/11/16 03:29:26;;;;;;;;;;;22.60;50.50;;;;;;1573505;75;763;-55
2021/11/16 03:33:31;;;;;;;;;;;22.60;50.40;;;;;;1560890;75;882;-55
2021/11/16 03:35:35;;;;;;;;;;;22.60;50.50;;;;;;1570124;75;1151;-55
2021/11/16 03:37:39;;;;;;;;;;;22.60;50.50;;;;;;1560477;75;1431;-55
2021/11/16 03:39:41;;;;;;;;;;;22.60;50.50;;;;;;1560533;75;580;-54
2021/11/16 03:41:45;;;;;;;;;;;22.60;50.50;;;;;;1560507;75;690;-55
2021/11/16 03:43:49;;;;;;;;;;;22.60;50.50;;;;;;1573955;75;1989;-55
2021/11/16 03:45:50;;;;;;;;;;;22.60;50.50;;;;;;1560132;75;1606;-57
2021/11/16 03:47:52;;;;;;;;;;;22.60;50.50;;;;;;1568950;75;634;-57
2021/11/16 03:49:56;;;;;;;;;;;22.60;50.40;;;;;;1565136;75;703;-57
2021/11/16 03:51:58;;;;;;;;;;;22.60;50.40;;;;;;1577472;75;622;-54
2021/11/16 03:53:59;;;;;;;;;;;22.70;50.50;;;;;;1560557;75;741;-57
2021/11/16 03:56:01;;;;;;;;;;;22.60;50.40;;;;;;1571062;75;1143;-57
2021/11/16 03:58:04;;;;;;;;;;;22.60;50.50;;;;;;1566155;75;708;-56
2021/11/16 04:00:10;;;;;;;;;;;22.60;50.50;;;;;;1560585;75;822;-53
2021/11/16 04:02:12;;;;;;;;;;;22.60;50.40;;;;;;1584988;75;648;-55
2021/11/16 04:04:17;;;;;;;;;;;22.60;50.50;;;;;;1568641;75;1946;-54
2021/11/16 04:06:19;;;;;;;;;;;22.60;50.50;;;;;;1560161;75;1628;-54
2021/11/16 04:08:21;;;;;;;;;;;22.60;50.50;;;;;;1559937;75;756;-53
2021/11/16 04:10:23;;;;;;;;;;;22.70;50.60;;;;;;1559582;75;814;-55
2021/11/16 04:12:25;;;;;;;;;;;22.60;50.60;;;;;;1559134;75;767;-53
2021/11/16 04:14:27;;;;;;;;;;;22.70;50.70;;;;;;1560271;75;747;-53
2021/11/16 04:16:29;;;;;;;;;;;22.60;50.60;;;;;;1553665;75;1111;-55
2021/11/16 04:18:31;;;;;;;;;;;22.60;50.70;;;;;;1577493;75;725;-56
2021/11/16 04:20:33;;;;;;;;;;;22.70;50.70;;;;;;1560357;75;760;-55
2021/11/16 04:22:36;;;;;;;;;;;22.60;50.70;;;;;;1560493;75;803;-56
2021/11/16 04:24:38;;;;;;;;;;;22.70;50.80;;;;;;1553508;75;1893;-52
2021/11/16 04:26:40;;;;;;;;;;;22.60;50.70;;;;;;1570704;75;1145;-54
2021/11/16 04:28:42;;;;;;;;;;;22.60;50.80;;;;;;1566636;75;782;-52
2021/11/16 04:30:44;;;;;;;;;;;22.60;50.70;;;;;;1568770;75;732;-54
2021/11/16 04:32:46;;;;;;;;;;;22.60;50.70;;;;;;1560179;75;725;-53
2021/11/16 04:34:48;;;;;;;;;;;22.60;50.70;;;;;;1563327;75;791;-54
2021/11/16 04:36:50;;;;;;;;;;;22.60;50.70;;;;;;1560411;75;1123;-54
2021/11/16 04:38:53;;;;;;;;;;;22.60;50.70;;;;;;1560439;75;679;-53
2021/11/16 04:40:56;;;;;;;;;;;22.60;50.70;;;;;;1560647;75;719;-53
2021/11/16 04:43:00;;;;;;;;;;;22.60;50.80;;;;;;1559985;75;716;-55
2021/11/16 04:45:02;;;;;;;;;;;22.70;50.80;;;;;;1560637;75;1897;-56
2021/11/16 04:47:04;;;;;;;;;;;22.60;50.70;;;;;;1560637;75;1141;-55
2021/11/16 04:53:54;;;;;;;;;;;22.60;50.80;;;;;;1560272;75;719;-56
2021/11/16 05:04:35;;;;;;;;;;;22.60;50.90;;;;;;1555618;75;1894;-57
2021/11/16 05:06:37;;;;;;;;;;;22.60;50.80;;;;;;1560266;75;1142;-56
2021/11/16 05:08:40;;;;;;;;;;;22.60;50.80;;;;;;1560613;75;685;-55
2021/11/16 05:10:42;;;;;;;;;;;22.60;50.80;;;;;;1560532;75;725;-56
2021/11/16 05:12:44;;;;;;;;;;;22.60;50.80;;;;;;1560077;75;669;-55
2021/11/16 05:14:46;;;;;;;;;;;22.60;50.80;;;;;;1554157;75;744;-56
2021/11/16 05:16:47;;;;;;;;;;;22.60;50.80;;;;;;1560357;75;1142;-56
2021/11/16 05:18:49;;;;;;;;;;;22.60;50.80;;;;;;1568543;75;516;-56
2021/11/16 05:20:51;;;;;;;;;;;22.60;50.80;;;;;;1561719;75;780;-58
2021/11/16 05:22:53;;;;;;;;;;;22.60;50.80;;;;;;1560027;75;703;-54
2021/11/16 05:24:55;;;;;;;;;;;22.60;50.80;;;;;;1560420;75;1948;-58
2021/11/16 05:26:57;;;;;;;;;;;22.60;50.80;;;;;;1570143;75;1122;-58
2021/11/16 05:28:59;;;;;;;;;;;22.60;50.80;;;;;;1571092;75;784;-57
2021/11/16 05:31:01;;;;;;;;;;;22.60;50.80;;;;;;1560696;75;764;-56
2021/11/16 05:33:03;;;;;;;;;;;22.60;50.80;;;;;;1560336;75;699;-56
2021/11/16 05:35:05;;;;;;;;;;;22.70;50.90;;;;;;1568043;75;721;-56
2021/11/16 05:37:07;;;;;;;;;;;22.60;50.80;;;;;;1560634;75;1059;-58
2021/11/16 05:39:09;;;;;;;;;;;22.60;50.80;;;;;;1559282;75;783;-57
2021/11/16 05:41:12;;;;;;;;;;;22.60;50.80;;;;;;1560232;75;655;-56
2021/11/16 05:43:14;;;;;;;;;;;22.60;50.80;;;;;;1560547;75;809;-56
2021/11/16 05:45:16;;;;;;;;;;;22.60;50.90;;;;;;1553038;75;1947;-57
2021/11/16 05:47:18;;;;;;;;;;;22.60;50.90;;;;;;1560614;75;885;-56
2021/11/16 05:49:20;;;;;;;;;;;22.60;50.90;;;;;;1560720;75;605;-56
2021/11/16 05:51:23;;;;;;;;;;;22.60;50.90;;;;;;1560035;75;715;-56
2021/11/16 05:53:25;;;;;;;;;;;22.60;50.90;;;;;;1560513;75;762;-54
2021/11/16 05:55:27;;;;;;;;;;;22.60;50.90;;;;;;1560389;75;1151;-55
2021/11/16 05:57:29;;;;;;;;;;;22.60;50.90;;;;;;1559774;75;884;-56
2021/11/16 05:59:34;;;;;;;;;;;22.60;50.90;;;;;;1564002;75;698;-56
2021/11/16 06:01:36;;;;;;;;;;;22.60;51.00;;;;;;1569375;75;726;-53
2021/11/16 06:03:38;;;;;;;;;;;22.60;51.00;;;;;;1559746;75;708;-56
2021/11/16 06:05:40;;;;;;;;;;;22.60;51.00;;;;;;1562426;75;1942;-54
2021/11/16 06:07:41;;;;;;;;;;;22.60;51.10;;;;;;1560633;75;713;-55
2021/11/16 06:09:43;;;;;;;;;;;22.60;51.10;;;;;;1566738;75;670;-55
2021/11/16 06:11:46;;;;;;;;;;;22.60;51.10;;;;;;1564353;75;703;-54
2021/11/16 06:13:48;;;;;;;;;;;22.70;51.20;;;;;;1560439;75;703;-55
2021/11/16 06:15:50;;;;;;;;;;;22.70;51.20;;;;;;1560419;75;1154;-56
2021/11/16 06:17:51;;;;;;;;;;;22.70;51.10;;;;;;1575831;75;948;-56
2021/11/16 06:19:53;;;;;;;;;;;22.70;51.10;;;;;;1560517;75;807;-54
2021/11/16 06:21:55;;;;;;;;;;;22.70;51.10;;;;;;1560310;75;683;-54
2021/11/16 06:23:57;;;;;;;;;;;22.70;51.10;;;;;;1560105;75;1927;-54
2021/11/16 06:25:59;;;;;;;;;;;22.70;51.10;;;;;;1560130;75;1119;-56
2021/11/16 06:28:01;;;;;;;;;;;22.70;51.10;;;;;;1560641;75;788;-55
2021/11/16 06:30:03;;;;;;;;;;;22.70;51.00;;;;;;1570022;75;765;-55
2021/11/16 06:32:06;;;;;;;;;;;22.60;50.90;;;;;;1565563;75;672;-56
2021/11/16 06:34:09;;;;;;;;;;;22.60;50.90;;;;;;1568853;75;773;-55
2021/11/16 06:36:11;;;;;;;;;;;22.70;51.00;;;;;;1576622;73;1133;-56
2021/11/16 06:38:13;;;;;;;;;;;22.70;50.90;;;;;;1571338;75;789;-55
2021/11/16 06:40:16;;;;;;;;;;;22.70;50.80;;;;;;1560238;75;723;-55
2021/11/16 06:42:18;;;;;;;;;;;22.70;50.80;;;;;;1574066;75;732;-55
2021/11/16 06:44:21;;;;;;;;;;;22.60;50.60;;;;;;1559847;75;1930;-55
2021/11/16 06:46:23;;;;;;;;;;;22.60;50.60;;;;;;1562475;75;1125;-55
2021/11/16 06:48:25;;;;;;;;;;;22.60;50.60;;;;;;1562086;75;710;-55
2021/11/16 06:50:27;;;;;;;;;;;22.60;50.60;;;;;;1562984;75;732;-56
2021/11/16 06:52:33;;;;;;;;;;;22.60;50.50;;;;;;1563268;75;712;-54
2021/11/16 06:54:32;;;;;;;;;;;22.60;50.40;;;;;;1580172;74;1568;-56
2021/11/16 06:56:34;;;;;;;;;;;22.60;50.30;;;;;;1560187;75;1078;-56
2021/11/16 06:58:36;;;;;;;;;;;22.60;50.30;;;;;;1565441;75;707;-56
2021/11/16 07:00:38;;;;;;;;;;;22.60;50.20;;;;;;1574407;75;790;-55
2021/11/16 07:02:43;;;;;;;;;;;22.60;50.20;;;;;;1569015;75;680;-56
2021/11/16 07:04:44;;;;;;;;;;;22.60;50.10;;;;;;1560147;75;1938;-56
2021/11/16 07:06:47;;;;;;;;;;;22.60;50.10;;;;;;1567542;75;1129;-56
2021/11/16 07:08:49;;;;;;;;;;;22.60;50.10;;;;;;1560946;75;738;-56
2021/11/16 07:10:51;;;;;;;;;;;22.60;50.00;;;;;;1560783;75;737;-56
2021/11/16 07:12:53;;;;;;;;;;;22.50;50.10;;;;;;1560156;75;757;-56
2021/11/16 07:14:55;;;;;;;;;;;22.60;50.00;;;;;;1560525;75;675;-55
2021/11/16 07:16:58;;;;;;;;;;;22.50;50.00;;;;;;1560632;75;1105;-56
2021/11/16 07:19:02;;;;;;;;;;;22.60;50.00;;;;;;1560217;75;716;-57
2021/11/16 07:21:05;;;;;;;;;;;22.50;49.90;;;;;;1560472;75;805;-56
2021/11/16 07:23:09;;;;;;;;;;;22.50;50.00;;;;;;1560474;75;692;-53
2021/11/16 07:25:12;;;;;;;;;;;22.60;49.90;;;;;;1570345;75;1937;-55
2021/11/16 07:27:14;;;;;;;;;;;22.50;49.90;;;;;;1579905;75;754;-56
2021/11/16 07:29:17;;;;;;;;;;;22.50;49.90;;;;;;1547813;75;711;-56
2021/11/16 07:31:21;;;;;;;;;;;22.50;49.90;;;;;;1527322;76;1128;-56
2021/11/16 07:33:24;;;;;;;;;;;22.50;49.80;;;;;;1562311;74;1414;-55
2021/11/16 07:35:28;;;;;;;;;;;22.50;49.80;;;;;;1560640;75;1180;-53
2021/11/16 07:37:30;;;;;;;;;;;22.60;49.80;;;;;;1558825;75;1103;-57
2021/11/16 07:39:34;;;;;;;;;;;22.50;49.90;;;;;;1560494;75;718;-57
2021/11/16 07:41:36;;;;;;;;;;;22.50;49.80;;;;;;1559119;75;1066;-53
2021/11/16 07:43:38;;;;;;;;;;;22.50;49.80;;;;;;1560090;75;766;-56
2021/11/16 07:45:41;;;;;;;;;;;22.50;49.80;;;;;;1560613;75;1907;-56
2021/11/16 07:47:45;;;;;;;;;;;22.50;49.80;;;;;;1560383;75;750;-54
2021/11/16 07:49:50;;;;;;;;;;;22.50;49.70;;;;;;1560410;75;670;-53
2021/11/16 07:51:52;;;;;;;;;;;22.50;49.80;;;;;;1539986;76;726;-55
2021/11/16 07:53:55;;;;;;;;;;;22.50;49.70;;;;;;1542426;76;714;-54
2021/11/16 07:56:01;;;;;;;;;;;22.50;49.80;;;;;;1565564;75;1122;-56
2021/11/16 07:58:06;;;;;;;;;;;22.50;49.80;;;;;;1567802;75;765;-53
2021/11/16 08:00:24;;;;;;;;;;;22.50;49.80;;;;;;1541121;75;704;-56
2021/11/16 08:02:30;;;;;;;;;;;22.40;49.60;;;;;;1553343;75;1104;-57
2021/11/16 08:04:42;;;;;;;;;;;22.50;49.70;;;;;;1568284;75;1908;-56
2021/11/16 08:06:39;;;;;;;;;;;22.50;49.80;;;;;;1562344;75;1709;-55
2021/11/16 08:08:53;;;;;;;;;;;22.40;49.70;;;;;;1567441;75;1625;-55
2021/11/16 08:10:46;;;;;;;;;;;22.40;49.60;;;;;;1558030;75;1627;-56
2021/11/16 08:12:48;;;;;;;;;;;22.50;49.80;;;;;;1545012;75;1638;-55
2021/11/16 08:14:52;;;;;;;;;;;22.40;49.70;;;;;;1538511;75;739;-54
2021/11/16 08:16:57;;;;;;;;;;;22.40;49.70;;;;;;1565098;75;1783;-55
2021/11/16 08:19:05;;;;;;;;;;;22.40;49.70;;;;;;1555561;75;1892;-55
2021/11/16 08:21:04;;;;;;;;;;;22.40;49.70;;;;;;1547906;75;1551;-55
2021/11/16 08:23:07;;;;;;;;;;;22.40;49.70;;;;;;1551238;75;750;-55
2021/11/16 08:25:10;;;;;;;;;;;22.40;49.70;;;;;;1554986;75;1921;-53
2021/11/16 08:27:14;;;;;;;;;;;22.50;49.70;;;;;;1564365;75;1150;-53
2021/11/16 08:29:16;;;;;;;;;;;22.50;49.70;;;;;;1542506;75;1699;-55
2021/11/16 08:31:18;;;;;;;;;;;22.50;49.70;;;;;;1545886;75;831;-56
2021/11/16 08:33:20;;;;;;;;;;;22.40;49.60;;;;;;1538844;75;763;-53
2021/11/16 08:35:24;;;;;;;;;;;22.40;49.60;;;;;;1540903;75;1140;-55
2021/11/16 08:37:31;;;;;;;;;;;22.40;49.50;;;;;;1553791;75;1565;-55
2021/11/16 08:39:39;;;;;;;;;;;22.40;49.50;;;;;;1565788;75;1936;-55
2021/11/16 08:41:41;;;;;;;;;;;22.50;49.70;;;;;;1557312;75;667;-54
2021/11/16 08:43:43;;;;;;;;;;;22.50;49.70;;;;;;1558408;75;713;-55
2021/11/16 08:45:48;;;;;;;;;;;22.40;49.60;;;;;;1560576;75;1933;-54
2021/11/16 08:47:50;;;;;;;;;;;22.40;49.50;;;;;;1538638;75;1587;-55
2021/11/16 08:49:52;;;;;;;;;;;22.40;49.50;;;;;;1564967;75;1908;-54
2021/11/16 08:51:57;;;;;;;;;;;22.50;49.60;;;;;;1567997;75;643;-55
2021/11/16 08:53:58;;;;;;;;;;;22.50;49.70;;;;;;1550786;75;1450;-55
2021/11/16 08:56:00;;;;;;;;;;;22.50;49.60;;;;;;1543207;75;1179;-55
2021/11/16 08:58:02;;;;;;;;;;;22.50;49.70;;;;;;1547865;76;1309;-55
2021/11/16 09:00:14;;;;;;;;;;;22.40;49.50;;;;;;1525667;77;763;-56
2021/11/16 09:02:17;;;;;;;;;;;22.40;49.50;;;;;;1525390;77;709;-56
2021/11/16 09:04:26;;;;;;;;;;;22.40;49.50;;;;;;1525938;77;733;-56
2021/11/16 09:06:30;;;;;;;;;;;22.50;49.60;;;;;;1525693;76;1932;-56
2021/11/16 09:08:33;;;;;;;;;;;22.40;49.50;;;;;;1524901;77;1453;-56
2021/11/16 09:10:38;;;;;;;;;;;22.40;49.40;;;;;;1512992;77;604;-56
2021/11/16 09:12:45;;;;;;;;;;;22.50;49.60;;;;;;1516229;77;763;-57
2021/11/16 09:14:54;;;;;;;;;;;22.40;49.40;;;;;;1518674;77;713;-54
2021/11/16 09:16:56;;;;;;;;;;;22.40;49.40;;;;;;1521454;76;1146;-55
2021/11/16 09:19:00;;;;;;;;;;;22.40;49.40;;;;;;1511191;77;813;-56
2021/11/16 09:21:02;;;;;;;;;;;22.50;49.60;;;;;;1517509;77;1453;-56
2021/11/16 09:23:04;;;;;;;;;;;22.50;49.60;;;;;;1515907;77;672;-56
2021/11/16 09:25:23;;;;;;;;;;;22.40;49.40;;;;;;1515639;77;1937;-56
2021/11/16 09:27:38;;;;;;;;;;;22.40;49.40;;;;;;1509985;77;929;-56
2021/11/16 09:29:39;;;;;;;;;;;22.40;49.40;;;;;;1514352;77;1607;-56
2021/11/16 09:31:44;;;;;;;;;;;22.40;49.40;;;;;;1522026;77;766;-57
2021/11/16 09:33:45;;;;;;;;;;;22.40;49.40;;;;;;1529654;77;1191;-56
2021/11/16 09:35:48;;;;;;;;;;;22.40;49.40;;;;;;1529076;76;1132;-57
2021/11/16 09:37:50;;;;;;;;;;;22.50;49.60;;;;;;1523092;77;719;-55
2021/11/16 09:39:54;;;;;;;;;;;22.40;49.40;;;;;;1518879;77;630;-55
2021/11/16 09:41:59;;;;;;;;;;;22.40;49.40;;;;;;1524165;77;1337;-56
2021/11/16 09:44:11;;;;;;;;;;;22.40;49.40;;;;;;1529090;77;704;-56
2021/11/16 09:46:14;;;;;;;;;;;22.40;49.40;;;;;;1522485;76;1929;-55
2021/11/16 09:48:18;;;;;;;;;;;22.40;49.40;;;;;;1515726;77;808;-56
2021/11/16 09:50:21;;;;;;;;;;;22.40;49.40;;;;;;1520073;77;1077;-55
2021/11/16 09:52:38;;;;;;;;;;;22.50;49.50;;;;;;1523751;77;762;-54
2021/11/16 09:54:57;;;;;;;;;;;22.40;49.40;;;;;;1520398;77;1956;-53
2021/11/16 09:57:06;;;;;;;;;;;22.40;49.40;;;;;;1526468;77;1142;-55
2021/11/16 09:59:12;;;;;;;;;;;22.40;49.30;;;;;;1529688;76;1994;-55
2021/11/16 10:01:13;;;;;;;;;;;22.40;49.40;;;;;;1528838;77;1825;-54
2021/11/16 10:03:16;;;;;;;;;;;22.40;49.40;;;;;;1526088;77;1176;-54
2021/11/16 10:05:21;;;;;;;;;;;22.40;49.30;;;;;;1531016;76;1941;-57
2021/11/16 10:07:23;;;;;;;;;;;22.40;49.30;;;;;;1522169;77;813;-56
2021/11/16 10:09:25;;;;;;;;;;;22.40;49.30;;;;;;1518967;77;802;-56
2021/11/16 10:11:27;;;;;;;;;;;22.40;49.40;;;;;;1513753;77;701;-56
2021/11/16 10:13:29;;;;;;;;;;;22.40;49.30;;;;;;1524532;77;784;-56
2021/11/16 10:15:31;;;;;;;;;;;22.40;49.30;;;;;;1514291;76;1110;-56
2021/11/16 10:17:33;;;;;;;;;;;22.40;49.30;;;;;;1522372;77;668;-54
2021/11/16 10:19:35;;;;;;;;;;;22.40;49.30;;;;;;1516549;77;692;-57
2021/11/16 10:21:37;;;;;;;;;;;22.40;49.30;;;;;;1517683;77;704;-56
2021/11/16 10:23:45;;;;;;;;;;;22.40;49.20;;;;;;1516108;77;821;-58
2021/11/16 10:25:50;;;;;;;;;;;22.40;49.20;;;;;;1528552;76;1980;-56
2021/11/16 10:27:56;;;;;;;;;;;22.40;49.20;;;;;;1532784;77;695;-56
2021/11/16 10:30:05;;;;;;;;;;;22.50;49.40;;;;;;1528727;77;888;-56
2021/11/16 10:32:20;;;;;;;;;;;22.40;49.30;;;;;;1521853;76;1703;-55
2021/11/16 10:34:23;;;;;;;;;;;22.40;49.20;;;;;;1529034;77;663;-56
2021/11/16 10:36:27;;;;;;;;;;;22.40;49.20;;;;;;1518365;77;1884;-56
2021/11/16 10:38:29;;;;;;;;;;;22.40;49.30;;;;;;1511294;77;700;-56
2021/11/16 10:40:31;;;;;;;;;;;22.50;49.50;;;;;;1517603;77;732;-56
2021/11/16 10:42:33;;;;;;;;;;;22.40;49.40;;;;;;1526829;77;697;-56
2021/11/16 10:44:38;;;;;;;;;;;22.40;49.40;;;;;;1513784;78;1194;-56
2021/11/16 10:46:41;;;;;;;;;;;22.50;49.60;;;;;;1520283;77;1940;-56
2021/11/16 10:48:43;;;;;;;;;;;22.50;49.70;;;;;;1524427;77;763;-56
2021/11/16 10:50:46;;;;;;;;;;;22.40;49.50;;;;;;1530632;77;668;-57
2021/11/16 10:52:59;;;;;;;;;;;22.40;49.50;;;;;;1530713;77;827;-56
2021/11/16 10:55:01;;;;;;;;;;;22.40;49.50;;;;;;1508211;77;976;-56
2021/11/16 10:57:05;;;;;;;;;;;22.40;49.50;;;;;;1514090;76;1127;-56
2021/11/16 10:59:10;;;;;;;;;;;22.40;49.50;;;;;;1525141;77;781;-57
2021/11/16 11:01:13;;;;;;;;;;;22.40;49.50;;;;;;1531467;77;677;-56
2021/11/16 11:03:22;;;;;;;;;;;22.50;49.70;;;;;;1531236;77;737;-56
2021/11/16 11:05:26;;;;;;;;;;;22.50;49.70;;;;;;1528560;76;1130;-57
2021/11/16 11:07:29;;;;;;;;;;;22.40;49.50;;;;;;1528222;77;1936;-57
2021/11/16 11:09:31;;;;;;;;;;;22.40;49.50;;;;;;1530938;76;1599;-56
2021/11/16 11:11:34;;;;;;;;;;;22.50;49.70;;;;;;1531271;77;670;-56
2021/11/16 11:13:36;;;;;;;;;;;22.50;49.70;;;;;;1531955;77;778;-56
2021/11/16 11:15:37;;;;;;;;;;;22.40;49.60;;;;;;1530937;76;1111;-58
2021/11/16 11:17:39;;;;;;;;;;;22.50;49.70;;;;;;1531165;77;831;-56
2021/11/16 11:19:42;;;;;;;;;;;22.50;49.70;;;;;;1527143;77;707;-56
2021/11/16 11:21:48;;;;;;;;;;;22.50;49.70;;;;;;1530791;77;712;-56
2021/11/16 11:23:52;;;;;;;;;;;22.50;49.70;;;;;;1529954;76;1557;-56
2021/11/16 11:25:53;;;;;;;;;;;22.50;49.70;;;;;;1520774;76;1934;-56
2021/11/16 11:28:08;;;;;;;;;;;22.40;49.60;;;;;;1519809;77;689;-56
2021/11/16 11:30:06;;;;;;;;;;;22.40;49.60;;;;;;1513657;76;1712;-56
2021/11/16 11:32:09;;;;;;;;;;;22.40;49.60;;;;;;1523343;77;769;-55
2021/11/16 11:34:12;;;;;;;;;;;22.50;49.70;;;;;;1525026;77;673;-56
2021/11/16 11:36:24;;;;;;;;;;;22.50;49.70;;;;;;1516981;77;1122;-54
2021/11/16 11:38:26;;;;;;;;;;;22.50;49.70;;;;;;1517640;77;694;-55
2021/11/16 11:40:30;;;;;;;;;;;22.50;49.70;;;;;;1505859;78;1248;-55
2021/11/16 11:42:39;;;;;;;;;;;22.50;49.70;;;;;;1530364;77;774;-55
2021/11/16 11:44:46;;;;;;;;;;;22.50;49.70;;;;;;1525709;76;1542;-55
2021/11/16 11:46:51;;;;;;;;;;;22.50;49.70;;;;;;1517309;77;1945;-59
2021/11/16 11:48:53;;;;;;;;;;;22.50;49.70;;;;;;1525031;77;1496;-53
2021/11/16 11:50:57;;;;;;;;;;;22.40;49.60;;;;;;1525526;77;770;-54
2021/11/16 11:52:59;;;;;;;;;;;22.40;49.60;;;;;;1525618;77;727;-54
2021/11/16 11:55:01;;;;;;;;;;;22.50;49.70;;;;;;1529039;77;735;-55
2021/11/16 11:57:03;;;;;;;;;;;22.50;49.70;;;;;;1525736;76;1138;-55
2021/11/16 11:59:05;;;;;;;;;;;22.50;49.70;;;;;;1525969;77;708;-55
2021/11/16 12:01:08;;;;;;;;;;;22.40;49.60;;;;;;1525690;77;777;-55
2021/11/16 12:03:10;;;;;;;;;;;22.40;49.60;;;;;;1525553;77;650;-55
2021/11/16 12:05:12;;;;;;;;;;;22.40;49.60;;;;;;1529524;77;800;-55
2021/11/16 12:07:14;;;;;;;;;;;22.40;49.60;;;;;;1527710;77;1936;-55
2021/11/16 12:09:16;;;;;;;;;;;22.40;49.50;;;;;;1528319;77;693;-54
2021/11/16 12:11:21;;;;;;;;;;;22.40;49.50;;;;;;1530310;77;768;-54
2021/11/16 12:13:27;;;;;;;;;;;22.40;49.50;;;;;;1530385;77;705;-55
2021/11/16 12:15:33;;;;;;;;;;;22.40;49.50;;;;;;1524225;76;1146;-55
2021/11/16 12:17:36;;;;;;;;;;;22.40;49.40;;;;;;1528712;77;782;-55
2021/11/16 12:19:46;;;;;;;;;;;22.40;49.40;;;;;;1528214;77;662;-55
2021/11/16 12:21:48;;;;;;;;;;;22.40;49.40;;;;;;1532412;77;656;-57
2021/11/16 12:23:55;;;;;;;;;;;22.40;49.40;;;;;;1530944;77;756;-55
2021/11/16 12:25:56;;;;;;;;;;;22.40;49.40;;;;;;1515157;76;1189;-57
2021/11/16 12:27:58;;;;;;;;;;;22.40;49.40;;;;;;1528314;77;1946;-55
2021/11/16 12:30:01;;;;;;;;;;;22.40;49.40;;;;;;1512269;77;746;-57
2021/11/16 12:32:14;;;;;;;;;;;22.40;49.40;;;;;;1520119;77;748;-57
2021/11/16 12:34:34;;;;;;;;;;;22.50;49.50;;;;;;1520353;77;704;-54